createdAt,value
2019-05-21T00:00:37.461Z,16.28
2019-05-21T00:03:04.418Z,16.21
2019-05-21T00:05:31.190Z,16.19
2019-05-21T00:07:57.954Z,16.17
2019-05-21T00:10:24.737Z,16.13
2019-05-21T00:12:51.447Z,16.06
2019-05-21T00:15:18.209Z,15.99
2019-05-21T00:17:46.959Z,16.02
2019-05-21T00:20:14.638Z,16.01
2019-05-21T00:22:41.419Z,15.99
2019-05-21T00:25:08.165Z,15.97
2019-05-21T00:27:34.874Z,15.86
2019-05-21T00:30:38.357Z,15.79
2019-05-21T00:33:42.234Z,15.82
2019-05-21T00:36:47.978Z,15.83
2019-05-21T00:39:53.867Z,15.83
2019-05-21T00:42:27.518Z,15.76
2019-05-21T00:44:54.245Z,15.72
2019-05-21T00:47:21.224Z,15.68
2019-05-21T00:49:47.945Z,15.66
2019-05-21T00:52:14.671Z,15.67
2019-05-21T00:54:41.385Z,15.73
2019-05-21T00:57:11.776Z,15.72
2019-05-21T00:59:38.695Z,15.68
2019-05-21T01:02:05.420Z,15.62
2019-05-21T01:04:32.521Z,15.59
2019-05-21T01:06:59.221Z,15.58
2019-05-21T01:09:25.955Z,15.60
2019-05-21T01:11:52.677Z,15.63
2019-05-21T01:14:19.493Z,15.63
2019-05-21T01:16:46.249Z,15.63
2019-05-21T01:19:12.985Z,15.58
2019-05-21T01:21:39.745Z,15.52
2019-05-21T01:24:06.490Z,15.49
2019-05-21T01:26:33.209Z,15.53
2019-05-21T01:28:59.991Z,15.59
2019-05-21T01:31:26.723Z,15.61
2019-05-21T01:33:53.444Z,15.49
2019-05-21T01:36:20.148Z,15.39
2019-05-21T01:38:46.898Z,15.32
2019-05-21T01:41:13.618Z,15.39
2019-05-21T01:43:40.375Z,15.41
2019-05-21T01:46:07.146Z,15.39
2019-05-21T01:48:35.215Z,15.35
2019-05-21T01:51:03.521Z,15.36
2019-05-21T01:53:30.297Z,15.36
2019-05-21T01:55:57.013Z,15.34
2019-05-21T01:58:23.735Z,15.33
2019-05-21T02:00:50.469Z,15.27
2019-05-21T02:03:18.352Z,15.27
2019-05-21T02:05:46.625Z,15.28
2019-05-21T02:08:13.344Z,15.30
2019-05-21T02:10:40.077Z,15.20
2019-05-21T02:13:07.220Z,15.30
2019-05-21T02:15:34.061Z,15.29
2019-05-21T02:18:01.619Z,15.26
2019-05-21T02:20:28.603Z,15.13
2019-05-21T02:22:55.415Z,15.14
2019-05-21T02:25:24.507Z,15.14
2019-05-21T02:27:51.597Z,15.11
2019-05-21T02:30:20.103Z,15.13
2019-05-21T02:32:46.954Z,15.01
2019-05-21T02:35:13.676Z,15.00
2019-05-21T02:37:40.481Z,15.00
2019-05-21T02:40:07.326Z,14.94
2019-05-21T02:42:34.059Z,14.99
2019-05-21T02:45:00.773Z,14.92
2019-05-21T02:47:27.581Z,14.93
2019-05-21T02:49:54.375Z,14.93
2019-05-21T02:52:21.070Z,14.96
2019-05-21T02:54:48.563Z,15.03
2019-05-21T02:57:15.423Z,15.03
2019-05-21T02:59:44.084Z,15.07
2019-05-21T03:02:28.134Z,15.06
2019-05-21T03:04:55.722Z,14.97
2019-05-21T03:07:25.533Z,14.97
2019-05-21T03:09:51.232Z,15.00
2019-05-21T03:12:18.463Z,15.01
2019-05-21T03:14:45.204Z,15.05
2019-05-21T03:17:11.950Z,14.95
2019-05-21T03:19:38.822Z,14.89
2019-05-21T03:22:07.326Z,14.89
2019-05-21T03:24:34.376Z,14.80
2019-05-21T03:27:01.126Z,14.75
2019-05-21T03:29:27.839Z,14.78
2019-05-21T03:31:54.618Z,14.83
2019-05-21T03:34:21.328Z,14.74
2019-05-21T03:36:48.087Z,14.69
2019-05-21T03:39:19.060Z,14.75
2019-05-21T03:41:43.541Z,14.70
2019-05-21T03:44:10.730Z,14.74
2019-05-21T03:46:37.807Z,14.64
2019-05-21T03:49:04.562Z,14.60
2019-05-21T03:51:31.312Z,14.58
2019-05-21T03:53:59.929Z,14.70
2019-05-21T03:56:26.664Z,14.56
2019-05-21T03:58:53.398Z,14.56
2019-05-21T04:01:20.413Z,14.59
2019-05-21T04:03:47.189Z,14.65
2019-05-21T04:06:13.932Z,14.58
2019-05-21T04:08:40.756Z,14.62
2019-05-21T04:11:07.879Z,14.65
2019-05-21T04:13:34.838Z,14.65
2019-05-21T04:16:11.497Z,14.66
2019-05-21T04:18:52.002Z,14.63
2019-05-21T04:21:18.735Z,14.59
2019-05-21T04:23:45.550Z,14.49
2019-05-21T04:26:12.349Z,14.55
2019-05-21T04:28:39.193Z,14.58
2019-05-21T04:31:05.905Z,14.59
2019-05-21T04:33:33.040Z,14.68
2019-05-21T04:35:59.754Z,14.74
2019-05-21T04:38:26.525Z,14.74
2019-05-21T04:40:53.485Z,14.77
2019-05-21T04:43:20.241Z,14.82
2019-05-21T04:45:46.970Z,14.84
2019-05-21T04:48:13.672Z,14.90
2019-05-21T04:50:40.433Z,14.90
2019-05-21T04:53:07.144Z,14.88
2019-05-21T04:55:33.875Z,14.86
2019-05-21T04:58:00.625Z,14.83
2019-05-21T05:00:27.414Z,14.73
2019-05-21T05:02:54.147Z,14.73
2019-05-21T05:05:20.995Z,14.74
2019-05-21T05:07:47.725Z,14.75
2019-05-21T05:10:14.662Z,14.77
2019-05-21T05:12:43.882Z,14.78
2019-05-21T05:15:10.580Z,14.75
2019-05-21T05:17:37.372Z,14.81
2019-05-21T05:20:07.439Z,14.80
2019-05-21T05:22:34.389Z,14.78
2019-05-21T05:25:03.257Z,14.62
2019-05-21T05:27:31.307Z,14.62
2019-05-21T05:29:58.225Z,14.71
2019-05-21T05:32:25.069Z,14.74
2019-05-21T05:34:51.822Z,14.74
2019-05-21T05:37:20.647Z,14.79
2019-05-21T05:39:48.854Z,14.74
2019-05-21T05:42:17.513Z,14.74
2019-05-21T05:44:46.136Z,14.64
2019-05-21T05:47:13.218Z,14.59
2019-05-21T05:49:44.201Z,14.61
2019-05-21T05:52:10.750Z,14.54
2019-05-21T05:54:39.918Z,14.51
2019-05-21T05:57:06.736Z,14.50
2019-05-21T05:59:33.501Z,14.42
2019-05-21T06:02:00.223Z,14.42
2019-05-21T06:04:30.432Z,14.42
2019-05-21T06:06:55.818Z,14.35
2019-05-21T06:09:22.660Z,14.35
2019-05-21T06:11:49.370Z,14.36
2019-05-21T06:14:18.697Z,14.32
2019-05-21T06:16:47.553Z,14.41
2019-05-21T06:19:14.355Z,14.33
2019-05-21T06:21:41.056Z,14.26
2019-05-21T06:24:07.799Z,14.23
2019-05-21T06:26:34.654Z,14.20
2019-05-21T06:29:01.430Z,14.17
2019-05-21T06:31:29.617Z,14.14
2019-05-21T06:33:56.338Z,14.15
2019-05-21T06:36:23.161Z,14.13
2019-05-21T06:38:49.900Z,14.11
2019-05-21T06:41:16.630Z,14.07
2019-05-21T06:43:43.360Z,14.11
2019-05-21T06:46:10.102Z,14.21
2019-05-21T06:48:36.841Z,14.16
2019-05-21T06:51:06.619Z,14.15
2019-05-21T06:53:33.369Z,14.16
2019-05-21T06:56:00.216Z,14.16
2019-05-21T06:58:27.022Z,14.12
2019-05-21T07:00:53.732Z,14.13
2019-05-21T07:03:23.291Z,14.06
2019-05-21T07:05:58.631Z,13.99
2019-05-21T07:08:33.508Z,14.02
2019-05-21T07:10:47.624Z,14.03
2019-05-21T07:13:14.482Z,13.94
2019-05-21T07:15:41.591Z,14.01
2019-05-21T07:18:08.325Z,14.04
2019-05-21T07:20:35.076Z,14.00
2019-05-21T07:23:01.985Z,14.03
2019-05-21T07:25:28.658Z,14.02
2019-05-21T07:27:58.584Z,14.01
2019-05-21T07:30:25.331Z,14.07
2019-05-21T07:32:52.832Z,14.11
2019-05-21T07:35:21.672Z,14.09
2019-05-21T07:37:48.527Z,14.06
2019-05-21T07:40:15.231Z,14.06
2019-05-21T07:42:41.980Z,14.02
2019-05-21T07:45:11.731Z,13.95
2019-05-21T07:47:39.591Z,13.99
2019-05-21T07:50:06.327Z,14.01
2019-05-21T07:52:33.070Z,14.00
2019-05-21T07:54:59.781Z,13.95
2019-05-21T07:57:26.500Z,13.92
2019-05-21T07:59:53.369Z,13.80
2019-05-21T08:02:20.392Z,13.83
2019-05-21T08:04:47.688Z,13.77
2019-05-21T08:07:14.428Z,13.82
2019-05-21T08:09:41.536Z,13.84
2019-05-21T08:12:36.789Z,13.85
2019-05-21T08:14:40.126Z,13.85
2019-05-21T08:17:06.853Z,13.73
2019-05-21T08:19:34.052Z,13.77
2019-05-21T08:22:00.757Z,13.81
2019-05-21T08:24:27.561Z,13.86
2019-05-21T08:26:54.392Z,13.90
2019-05-21T08:29:21.554Z,13.86
2019-05-21T08:31:48.291Z,13.97
2019-05-21T08:34:15.010Z,14.06
2019-05-21T08:36:41.813Z,14.11
2019-05-21T08:39:08.633Z,14.06
2019-05-21T08:41:35.327Z,14.07
2019-05-21T08:44:02.351Z,14.06
2019-05-21T08:46:29.128Z,13.96
2019-05-21T08:48:58.961Z,13.92
2019-05-21T08:51:26.038Z,13.97
2019-05-21T08:53:52.869Z,14.06
2019-05-21T08:56:19.593Z,13.97
2019-05-21T08:58:46.289Z,13.93
2019-05-21T09:01:13.109Z,13.98
2019-05-21T09:03:39.875Z,14.00
2019-05-21T09:06:06.577Z,13.96
2019-05-21T09:08:33.300Z,13.82
2019-05-21T09:10:59.989Z,13.95
2019-05-21T09:13:26.761Z,13.95
2019-05-21T09:15:53.492Z,13.89
2019-05-21T09:18:20.620Z,13.87
2019-05-21T09:20:47.702Z,13.87
2019-05-21T09:23:14.423Z,13.94
2019-05-21T09:25:41.164Z,13.93
2019-05-21T09:28:08.363Z,13.95
2019-05-21T09:30:35.185Z,13.91
2019-05-21T09:33:01.897Z,13.90
2019-05-21T09:35:28.946Z,13.83
2019-05-21T09:37:55.695Z,13.96
2019-05-21T09:40:23.808Z,14.02
2019-05-21T09:42:50.532Z,14.09
2019-05-21T09:45:19.511Z,14.03
2019-05-21T09:47:46.632Z,14.04
2019-05-21T09:50:13.770Z,14.10
2019-05-21T09:52:40.543Z,14.18
2019-05-21T09:55:07.957Z,14.09
2019-05-21T09:57:43.740Z,14.10
2019-05-21T10:00:18.768Z,14.19
2019-05-21T10:02:45.603Z,14.21
2019-05-21T10:05:16.464Z,14.19
2019-05-21T10:07:43.178Z,14.09
2019-05-21T10:10:10.471Z,14.15
2019-05-21T10:12:37.881Z,14.18
2019-05-21T10:15:06.710Z,14.27
2019-05-21T10:17:33.736Z,14.21
2019-05-21T10:20:00.479Z,14.16
2019-05-21T10:22:27.267Z,14.15
2019-05-21T10:24:54.016Z,14.09
2019-05-21T10:27:20.855Z,14.12
2019-05-21T10:29:47.739Z,14.19
2019-05-21T10:32:15.072Z,14.18
2019-05-21T10:34:41.829Z,14.22
2019-05-21T10:37:08.571Z,14.28
2019-05-21T10:39:35.292Z,14.22
2019-05-21T10:42:02.225Z,14.27
2019-05-21T10:44:29.313Z,14.35
2019-05-21T10:46:56.150Z,14.29
2019-05-21T10:49:22.885Z,14.36
2019-05-21T10:51:49.624Z,14.37
2019-05-21T10:54:16.549Z,14.34
2019-05-21T10:56:48.122Z,14.24
2019-05-21T10:59:12.322Z,14.12
2019-05-21T11:01:55.539Z,14.05
2019-05-21T11:04:44.948Z,14.19
2019-05-21T11:07:13.415Z,14.20
2019-05-21T11:09:40.250Z,14.23
2019-05-21T11:12:07.669Z,14.23
2019-05-21T11:14:34.831Z,14.26
2019-05-21T11:17:14.907Z,14.28
2019-05-21T11:22:44.403Z,14.36
2019-05-21T11:25:11.681Z,14.23
2019-05-21T11:27:39.469Z,14.20
2019-05-21T11:30:07.140Z,14.09
2019-05-21T11:32:33.983Z,14.13
2019-05-21T11:35:00.716Z,14.17
2019-05-21T11:37:29.883Z,14.22
2019-05-21T11:39:56.809Z,14.23
2019-05-21T11:42:23.720Z,14.20
2019-05-21T11:44:50.501Z,14.20
2019-05-21T11:47:17.767Z,14.20
2019-05-21T11:49:44.486Z,14.33
2019-05-21T11:52:13.295Z,14.27
2019-05-21T11:54:40.045Z,14.24
2019-05-21T11:57:06.770Z,14.19
2019-05-21T11:59:34.449Z,14.26
2019-05-21T12:02:01.243Z,14.24
2019-05-21T12:04:28.011Z,14.28
2019-05-21T12:06:55.174Z,14.33
2019-05-21T12:09:21.890Z,14.37
2019-05-21T12:11:48.624Z,14.34
2019-05-21T12:14:18.237Z,14.31
2019-05-21T12:16:44.975Z,14.21
2019-05-21T12:19:11.704Z,14.35
2019-05-21T12:21:38.753Z,14.41
2019-05-21T12:24:05.592Z,14.40
2019-05-21T12:26:33.795Z,14.35
2019-05-21T12:29:00.575Z,14.34
2019-05-21T12:31:27.281Z,14.38
2019-05-21T12:33:54.053Z,14.34
2019-05-21T12:36:20.753Z,14.42
2019-05-21T12:38:47.787Z,14.50
2019-05-21T12:41:14.697Z,14.52
2019-05-21T12:43:43.342Z,14.41
2019-05-21T12:46:10.391Z,14.52
2019-05-21T12:48:37.126Z,14.56
2019-05-21T12:51:03.874Z,14.62
2019-05-21T12:53:30.716Z,14.60
2019-05-21T12:55:57.798Z,14.56
2019-05-21T12:58:24.746Z,14.59
2019-05-21T13:00:51.584Z,14.60
2019-05-21T13:03:18.341Z,14.50
2019-05-21T13:05:45.184Z,14.49
2019-05-21T13:08:12.140Z,14.42
2019-05-21T13:10:40.967Z,14.44
2019-05-21T13:13:07.948Z,14.43
2019-05-21T13:15:35.139Z,14.41
2019-05-21T13:18:01.926Z,14.27
2019-05-21T13:20:28.682Z,14.28
2019-05-21T13:22:55.472Z,14.35
2019-05-21T13:25:23.372Z,14.36
2019-05-21T13:27:50.097Z,14.30
2019-05-21T13:30:17.140Z,14.23
2019-05-21T13:32:47.569Z,14.28
2019-05-21T13:35:14.331Z,14.27
2019-05-21T13:37:43.396Z,14.31
2019-05-21T13:40:10.191Z,14.33
2019-05-21T13:42:37.017Z,14.46
2019-05-21T13:45:04.569Z,14.45
2019-05-21T13:47:31.619Z,14.49
2019-05-21T13:49:58.663Z,14.57
2019-05-21T13:52:25.438Z,14.49
2019-05-21T13:54:52.196Z,14.51
2019-05-21T13:57:18.921Z,14.50
2019-05-21T13:59:45.657Z,14.48
2019-05-21T14:02:13.577Z,14.49
2019-05-21T14:04:42.291Z,14.53
2019-05-21T14:07:09.155Z,14.50
2019-05-21T14:09:36.077Z,14.44
2019-05-21T14:12:02.831Z,14.48
2019-05-21T14:14:29.946Z,14.33
2019-05-21T14:16:56.802Z,14.35
2019-05-21T14:19:25.508Z,14.36
2019-05-21T14:21:52.241Z,14.31
2019-05-21T14:24:19.091Z,14.30
2019-05-21T14:26:45.826Z,14.27
2019-05-21T14:29:14.311Z,14.26
2019-05-21T14:31:42.632Z,14.24
2019-05-21T14:34:09.633Z,14.23
2019-05-21T14:36:36.578Z,14.25
2019-05-21T14:39:07.864Z,14.35
2019-05-21T14:41:34.635Z,14.41
2019-05-21T14:44:01.348Z,14.30
2019-05-21T14:46:28.060Z,14.32
2019-05-21T14:48:54.846Z,14.40
2019-05-21T14:51:21.572Z,14.41
2019-05-21T14:53:51.178Z,14.28
2019-05-21T14:56:18.238Z,14.28
2019-05-21T14:58:45.044Z,13.16
2019-05-21T15:01:12.121Z,14.32
2019-05-21T15:03:38.893Z,14.23
2019-05-21T15:06:05.751Z,14.19
2019-05-21T15:08:32.578Z,14.16
2019-05-21T15:10:59.901Z,14.12
2019-05-21T15:13:26.636Z,14.08
2019-05-21T15:15:53.607Z,14.12
2019-05-21T15:18:22.244Z,14.06
2019-05-21T15:21:08.786Z,14.06
2019-05-21T15:23:35.568Z,14.05
2019-05-21T15:26:02.322Z,14.01
2019-05-21T15:28:29.083Z,14.06
2019-05-21T15:30:55.871Z,14.05
2019-05-21T15:33:22.693Z,14.09
2019-05-21T15:35:49.411Z,14.14
2019-05-21T15:38:16.441Z,14.05
2019-05-21T15:40:45.434Z,14.01
2019-05-21T15:43:12.438Z,14.10
2019-05-21T15:45:46.586Z,14.16
2019-05-21T15:48:14.265Z,14.26
2019-05-21T15:50:41.165Z,14.38
2019-05-21T15:53:12.899Z,14.34
2019-05-21T15:55:39.964Z,14.33
2019-05-21T15:58:08.291Z,14.36
2019-05-21T16:00:35.058Z,14.35
2019-05-21T16:03:03.095Z,14.35
2019-05-21T16:05:30.085Z,14.31
2019-05-21T16:07:59.941Z,14.29
2019-05-21T16:10:26.882Z,14.27
2019-05-21T16:12:56.159Z,14.29
2019-05-21T16:15:23.045Z,14.30
2019-05-21T16:17:50.577Z,14.18
2019-05-21T16:20:17.429Z,14.20
2019-05-21T16:22:46.023Z,14.24
2019-05-21T16:25:12.955Z,14.23
2019-05-21T16:27:42.646Z,14.20
2019-05-21T16:30:11.432Z,14.12
2019-05-21T16:32:38.420Z,14.11
2019-05-21T16:35:06.549Z,14.06
2019-05-21T16:37:34.129Z,14.11
2019-05-21T16:40:01.686Z,14.11
2019-05-21T16:42:30.128Z,14.09
2019-05-21T16:44:57.612Z,14.03
2019-05-21T16:47:24.819Z,14.08
2019-05-21T16:49:54.509Z,14.04
2019-05-21T16:52:21.725Z,14.17
2019-05-21T16:54:48.478Z,14.20
2019-05-21T16:57:15.610Z,14.11
2019-05-21T16:59:42.449Z,14.10
2019-05-21T17:02:11.943Z,14.09
2019-05-21T17:04:38.950Z,14.00
2019-05-21T17:07:05.748Z,13.95
2019-05-21T17:09:32.541Z,14.01
2019-05-21T17:12:00.472Z,14.07
2019-05-21T17:14:27.394Z,14.07
2019-05-21T17:16:55.919Z,14.03
2019-05-21T17:19:23.299Z,13.99
2019-05-21T17:21:50.180Z,13.94
2019-05-21T17:24:19.711Z,14.03
2019-05-21T17:26:46.444Z,14.01
2019-05-21T17:29:13.732Z,14.04
2019-05-21T17:31:40.997Z,14.09
2019-05-21T17:34:09.909Z,13.98
2019-05-21T17:36:37.189Z,14.03
2019-05-21T17:39:05.069Z,13.98
2019-05-21T17:41:33.040Z,13.99
2019-05-21T17:43:59.840Z,14.02
2019-05-21T17:46:26.920Z,14.01
2019-05-21T17:48:53.986Z,13.97
2019-05-21T17:51:22.886Z,13.98
2019-05-21T17:53:49.888Z,13.99
2019-05-21T17:56:17.070Z,14.09
2019-05-21T17:58:43.778Z,14.08
2019-05-21T18:01:11.183Z,14.07
2019-05-21T18:03:37.959Z,14.13
2019-05-21T18:06:07.472Z,14.16
2019-05-21T18:08:34.338Z,14.12
2019-05-21T18:11:02.414Z,14.15
2019-05-21T18:13:30.833Z,14.21
2019-05-21T18:15:57.657Z,14.21
2019-05-21T18:18:24.561Z,14.17
2019-05-21T18:20:52.963Z,14.20
2019-05-21T18:23:19.744Z,14.15
2019-05-21T18:25:46.716Z,14.16
2019-05-21T18:28:13.512Z,14.20
2019-05-21T18:30:40.605Z,14.24
2019-05-21T18:33:07.618Z,14.28
2019-05-21T18:35:34.445Z,14.20
2019-05-21T18:38:01.503Z,14.25
2019-05-21T18:40:28.390Z,14.20
2019-05-21T18:42:55.146Z,14.20
2019-05-21T18:45:22.346Z,14.19
2019-05-21T18:47:49.491Z,14.08
2019-05-21T18:50:16.369Z,14.07
2019-05-21T18:52:43.587Z,14.11
2019-05-21T18:55:10.442Z,14.11
2019-05-21T18:57:37.386Z,14.05
2019-05-21T19:00:05.389Z,14.02
2019-05-21T19:02:34.571Z,13.99
2019-05-21T19:05:01.278Z,13.99
2019-05-21T19:07:28.060Z,13.92
2019-05-21T19:09:55.114Z,13.90
2019-05-21T19:12:36.915Z,13.95
2019-05-21T19:14:54.106Z,13.97
2019-05-21T19:17:34.725Z,13.99
2019-05-21T19:19:49.496Z,13.99
2019-05-21T19:22:16.270Z,14.04
2019-05-21T19:24:43.014Z,14.09
2019-05-21T19:27:10.390Z,14.08
2019-05-21T19:29:40.013Z,14.04
2019-05-21T19:32:06.885Z,14.05
2019-05-21T19:34:33.639Z,14.07
2019-05-21T19:37:02.261Z,13.99
2019-05-21T19:39:29.615Z,13.99
2019-05-21T19:41:56.999Z,14.01
2019-05-21T19:44:23.883Z,14.06
2019-05-21T19:46:51.341Z,14.07
2019-05-21T19:49:18.120Z,13.98
2019-05-21T19:51:44.984Z,13.99
2019-05-21T19:54:11.958Z,13.94
2019-05-21T19:56:38.796Z,13.95
2019-05-21T19:59:06.105Z,13.99
2019-05-21T20:01:33.021Z,14.02
2019-05-21T20:03:59.986Z,14.02
2019-05-21T20:06:26.906Z,14.01
2019-05-21T20:08:53.752Z,14.02
2019-05-21T20:11:20.685Z,14.05
2019-05-21T20:13:47.421Z,14.07
2019-05-21T20:16:14.151Z,14.01
2019-05-21T20:18:41.006Z,13.92
2019-05-21T20:21:08.699Z,13.96
2019-05-21T20:23:35.535Z,14.00
2019-05-21T20:26:02.281Z,13.97
2019-05-21T20:28:29.739Z,13.92
2019-05-21T20:30:56.682Z,13.96
2019-05-21T20:33:23.723Z,14.05
2019-05-21T20:35:52.679Z,14.05
2019-05-21T20:38:19.839Z,13.97
2019-05-21T20:40:50.068Z,14.00
2019-05-21T20:43:16.801Z,14.03
2019-05-21T20:45:45.848Z,14.07
2019-05-21T20:48:15.777Z,14.13
2019-05-21T20:50:43.247Z,14.10
2019-05-21T20:53:10.084Z,14.05
2019-05-21T20:55:39.274Z,14.02
2019-05-21T20:58:08.026Z,13.99
2019-05-21T21:00:45.825Z,13.98
2019-05-21T21:03:13.623Z,13.93
2019-05-21T21:05:40.927Z,13.98
2019-05-21T21:08:08.079Z,14.01
2019-05-21T21:10:35.450Z,13.94
2019-05-21T21:13:02.649Z,13.90
2019-05-21T21:15:30.929Z,13.92
2019-05-21T21:17:58.273Z,14.01
2019-05-21T21:20:25.148Z,13.99
2019-05-21T21:22:51.840Z,14.03
2019-05-21T21:25:21.394Z,13.99
2019-05-21T21:27:48.440Z,14.01
2019-05-21T21:30:15.199Z,13.92
2019-05-21T21:32:42.053Z,13.87
2019-05-21T21:35:11.517Z,13.91
2019-05-21T21:37:39.125Z,13.98
2019-05-21T21:40:08.477Z,13.98
2019-05-21T21:42:36.610Z,13.92
2019-05-21T21:45:03.744Z,13.94
2019-05-21T21:47:30.611Z,13.93
2019-05-21T21:49:58.848Z,13.90
2019-05-21T21:52:25.667Z,13.91
2019-05-21T21:54:53.109Z,13.94
2019-05-21T21:57:21.405Z,13.88
2019-05-21T21:59:48.347Z,13.90
2019-05-21T22:02:22.719Z,13.96
2019-05-21T22:04:50.357Z,13.98
2019-05-21T22:07:17.951Z,13.92
2019-05-21T22:09:46.854Z,13.91
2019-05-21T22:12:17.757Z,13.96
2019-05-21T22:14:51.878Z,14.00
2019-05-21T22:17:17.526Z,13.90
2019-05-21T22:19:44.377Z,13.78
2019-05-21T22:22:12.930Z,13.79
2019-05-21T22:24:39.673Z,13.86
2019-05-21T22:27:06.681Z,13.77
2019-05-21T22:29:34.265Z,13.84
2019-05-21T22:32:01.250Z,13.93
2019-05-21T22:34:27.946Z,13.96
2019-05-21T22:36:54.674Z,13.94
2019-05-21T22:39:25.891Z,13.89
2019-05-21T22:41:52.626Z,13.87
2019-05-21T22:44:19.356Z,13.87
2019-05-21T22:46:47.380Z,13.86
2019-05-21T22:49:14.159Z,13.87
2019-05-21T22:51:40.916Z,13.87
2019-05-21T22:54:07.735Z,13.89
2019-05-21T22:56:34.483Z,13.87
2019-05-21T22:59:02.847Z,13.89
2019-05-21T23:01:31.266Z,13.90
2019-05-21T23:03:58.291Z,13.88
2019-05-21T23:06:25.159Z,13.83
2019-05-21T23:08:51.875Z,13.80
2019-05-21T23:11:22.832Z,13.79
2019-05-21T23:13:48.078Z,13.74
2019-05-21T23:16:14.915Z,13.67
2019-05-21T23:18:41.825Z,13.64
2019-05-21T23:21:10.471Z,13.69
2019-05-21T23:23:37.201Z,13.68
2019-05-21T23:26:04.877Z,13.72
2019-05-21T23:28:35.312Z,13.73
2019-05-21T23:31:02.489Z,13.63
2019-05-21T23:33:30.035Z,13.70
2019-05-21T23:35:57.914Z,13.67
2019-05-21T23:38:24.687Z,13.67
2019-05-21T23:40:51.413Z,13.66
2019-05-21T23:43:18.451Z,13.61
2019-05-21T23:45:45.276Z,13.59
2019-05-21T23:48:13.793Z,13.56
2019-05-21T23:50:40.738Z,13.59
2019-05-21T23:53:07.548Z,13.63
2019-05-21T23:55:34.274Z,13.61
2019-05-21T23:58:03.894Z,13.61
